Time;durP1;ratioP1;P1;durP2;ratioP2;P2;SDS_P1;SDS_P2;PMS_P1;PMS_P2;Temp;Humidity;BMP_temperature;BMP_pressure;BME280_temperature;BME280_humidity;BME280_pressure;Samples;Min_cycle;Max_cycle;Signal;HPM_P1;HPM_P2
2022/03/26 00:00:09;;;;;;;63.45;36.05;;;7.10;99.90;;;;;;5092190;28;20091;-75
2022/03/26 00:02:35;;;;;;;67.88;36.42;;;6.70;99.90;;;;;;5093335;28;20080;-75
2022/03/26 00:05:02;;;;;;;70.50;36.95;;;7.30;99.90;;;;;;5092397;28;20056;-75
2022/03/26 00:07:28;;;;;;;74.40;39.38;;;6.60;99.90;;;;;;5092726;28;20044;-74
2022/03/26 00:09:54;;;;;;;74.20;39.25;;;6.60;99.90;;;;;;5093377;28;20089;-75
2022/03/26 00:12:20;;;;;;;81.63;42.40;;;6.60;99.90;;;;;;5093462;28;20044;-74
2022/03/26 00:14:46;;;;;;;75.10;38.30;;;7.00;99.90;;;;;;5093255;28;20043;-75
2022/03/26 00:17:12;;;;;;;83.20;42.53;;;6.60;99.90;;;;;;5092275;28;20051;-75
2022/03/26 00:19:38;;;;;;;76.15;41.33;;;6.50;99.90;;;;;;5093212;28;20054;-74
2022/03/26 00:22:04;;;;;;;83.22;44.40;;;6.60;99.90;;;;;;5092143;28;20554;-74
2022/03/26 00:24:29;;;;;;;83.78;42.60;;;6.60;99.90;;;;;;5092159;28;20113;-75
2022/03/26 00:26:55;;;;;;;93.25;45.55;;;6.50;99.90;;;;;;5093454;28;20052;-75
2022/03/26 00:29:21;;;;;;;95.45;45.80;;;6.50;99.90;;;;;;5092017;28;20399;-75
2022/03/26 00:31:47;;;;;;;91.55;47.35;;;6.60;99.90;;;;;;5075435;28;20075;-75
2022/03/26 00:34:13;;;;;;;102.55;48.28;;;7.20;99.90;;;;;;5095760;28;20036;-75
2022/03/26 00:36:39;;;;;;;100.05;47.30;;;6.50;99.90;;;;;;5095646;28;20048;-75
2022/03/26 00:39:05;;;;;;;104.57;51.50;;;7.10;99.90;;;;;;5061631;28;20052;-74
2022/03/26 00:41:31;;;;;;;102.68;50.22;;;6.40;99.90;;;;;;5096712;28;20036;-75
2022/03/26 00:43:57;;;;;;;115.22;53.03;;;6.40;99.90;;;;;;5095711;28;20055;-75
2022/03/26 00:46:23;;;;;;;108.78;52.13;;;6.60;99.90;;;;;;5078593;28;20044;-74
2022/03/26 00:48:49;;;;;;;105.20;51.33;;;6.50;99.90;;;;;;5095657;28;20125;-75
2022/03/26 00:51:16;;;;;;;105.60;51.15;;;6.50;99.90;;;;;;5095161;28;20149;-75
2022/03/26 00:53:43;;;;;;;108.43;50.65;;;6.70;99.90;;;;;;5095310;28;20051;-75
2022/03/26 00:56:08;;;;;;;111.50;53.50;;;6.50;99.90;;;;;;5095497;28;20123;-75
2022/03/26 00:58:34;;;;;;;111.50;53.63;;;6.60;99.90;;;;;;5095907;28;20143;-75
2022/03/26 01:01:00;;;;;;;104.00;50.22;;;6.50;99.90;;;;;;5096322;28;20047;-74
2022/03/26 01:03:26;;;;;;;111.20;55.13;;;6.50;99.90;;;;;;5095050;28;20048;-75
2022/03/26 01:05:52;;;;;;;108.82;53.10;;;7.30;99.90;;;;;;5095881;28;20496;-75
2022/03/26 01:08:18;;;;;;;111.57;52.97;;;6.10;99.90;;;;;;5095672;28;20036;-74
2022/03/26 01:10:44;;;;;;;108.70;52.63;;;6.40;99.90;;;;;;5096011;28;20109;-75
2022/03/26 01:13:11;;;;;;;109.97;53.88;;;6.50;99.90;;;;;;5095098;28;20051;-75
2022/03/26 01:15:37;;;;;;;119.60;55.53;;;6.90;99.90;;;;;;5094885;28;20097;-75
2022/03/26 01:18:03;;;;;;;118.25;55.67;;;6.60;99.90;;;;;;5095034;28;20055;-75
2022/03/26 01:20:29;;;;;;;111.97;53.22;;;6.30;99.90;;;;;;5094959;28;20095;-75
2022/03/26 01:22:55;;;;;;;117.05;54.90;;;6.50;99.90;;;;;;5078893;28;20052;-75
2022/03/26 01:25:21;;;;;;;112.45;54.13;;;6.50;99.90;;;;;;5095885;28;20097;-75
2022/03/26 01:27:46;;;;;;;111.78;53.08;;;6.30;99.90;;;;;;5095510;28;20123;-75
2022/03/26 01:30:13;;;;;;;116.05;55.35;;;6.40;99.90;;;;;;5094416;28;20044;-75
2022/03/26 01:32:38;;;;;;;118.82;57.25;;;6.40;99.90;;;;;;5077885;28;20490;-74
2022/03/26 01:35:05;;;;;;;115.25;54.33;;;6.40;99.90;;;;;;5077348;28;20040;-74
2022/03/26 01:37:31;;;;;;;116.95;55.88;;;6.20;99.90;;;;;;5094991;28;20052;-74
2022/03/26 01:39:56;;;;;;;117.70;53.97;;;6.30;99.90;;;;;;5095516;28;20055;-75
2022/03/26 01:42:22;;;;;;;107.30;52.25;;;6.40;99.90;;;;;;5095569;28;20044;-75
2022/03/26 01:44:48;;;;;;;119.60;53.97;;;6.10;99.90;;;;;;5094730;28;20123;-75
2022/03/26 01:47:14;;;;;;;112.47;53.50;;;6.10;99.90;;;;;;5095546;28;20051;-74
2022/03/26 01:49:40;;;;;;;114.78;53.45;;;6.20;99.90;;;;;;5095066;28;20040;-75
2022/03/26 01:52:10;;;;;;;113.28;53.92;;;6.00;99.90;;;;;;5095004;28;20040;-74
2022/03/26 01:54:40;;;;;;;107.90;52.53;;;6.00;99.90;;;;;;5095327;28;20066;-75
2022/03/26 01:57:07;;;;;;;105.72;52.65;;;5.80;99.90;;;;;;5095029;28;20395;-75
2022/03/26 01:59:33;;;;;;;106.25;50.47;;;6.20;99.90;;;;;;5095225;28;20048;-75
2022/03/26 02:01:59;;;;;;;99.50;47.33;;;6.40;99.90;;;;;;5095202;28;20040;-74
2022/03/26 02:04:25;;;;;;;100.20;47.50;;;6.10;99.90;;;;;;5093926;28;20048;-74
2022/03/26 02:06:50;;;;;;;93.15;46.65;;;5.70;99.90;;;;;;5077307;28;20055;-75
2022/03/26 02:09:16;;;;;;;85.65;44.08;;;5.70;99.90;;;;;;5093193;28;20044;-75
2022/03/26 02:11:44;;;;;;;88.43;45.47;;;5.90;99.90;;;;;;5093422;28;20066;-74
2022/03/26 02:14:11;;;;;;;89.70;44.60;;;5.80;99.90;;;;;;5076996;28;20052;-74
2022/03/26 02:16:40;;;;;;;92.85;43.97;;;6.00;99.90;;;;;;5094787;28;20043;-75
2022/03/26 02:19:07;;;;;;;95.60;46.25;;;5.50;99.90;;;;;;5094903;28;20052;-75
2022/03/26 02:21:34;;;;;;;94.15;45.33;;;5.40;99.90;;;;;;5094806;28;20047;-74
2022/03/26 02:24:05;;;;;;;92.82;46.47;;;5.60;99.90;;;;;;5094755;28;20048;-74
2022/03/26 02:26:31;;;;;;;105.28;49.30;;;5.60;99.90;;;;;;5094448;28;20044;-74
2022/03/26 02:29:07;;;;;;;112.07;51.25;;;5.80;99.90;;;;;;5094228;28;20504;-74
2022/03/26 02:31:33;;;;;;;114.78;52.65;;;5.90;99.90;;;;;;5076770;28;20044;-74
2022/03/26 02:33:59;;;;;;;109.05;51.83;;;5.60;99.90;;;;;;5076759;28;20085;-74
2022/03/26 02:36:25;;;;;;;111.45;52.47;;;5.70;99.90;;;;;;5093484;28;20393;-75
2022/03/26 02:38:50;;;;;;;121.30;54.70;;;5.60;99.90;;;;;;5092309;28;20054;-74
2022/03/26 02:41:16;;;;;;;127.78;56.90;;;5.70;99.90;;;;;;5076680;28;20048;-74
2022/03/26 02:43:42;;;;;;;120.18;54.88;;;5.40;99.90;;;;;;5094335;28;20052;-74
2022/03/26 02:46:07;;;;;;;127.60;56.22;;;6.00;99.90;;;;;;5094349;28;20040;-74
2022/03/26 02:48:35;;;;;;;120.18;54.40;;;5.30;99.90;;;;;;5092767;28;20055;-75
2022/03/26 02:51:01;;;;;;;127.55;57.72;;;5.30;99.90;;;;;;5076613;28;20051;-74
2022/03/26 02:53:27;;;;;;;126.50;57.08;;;5.40;99.90;;;;;;5092942;28;20087;-74
2022/03/26 02:55:53;;;;;;;124.78;56.40;;;5.40;99.90;;;;;;5076041;28;20059;-74
2022/03/26 02:58:19;;;;;;;132.65;56.83;;;5.50;99.90;;;;;;5093639;28;20511;-75
2022/03/26 03:00:46;;;;;;;130.40;57.33;;;5.30;99.90;;;;;;5094233;28;20512;-74
2022/03/26 03:03:12;;;;;;;115.35;54.08;;;5.30;99.90;;;;;;5092733;28;20052;-74
2022/03/26 03:05:37;;;;;;;121.28;56.45;;;5.60;99.90;;;;;;5093977;28;20051;-75
2022/03/26 03:08:03;;;;;;;127.35;55.97;;;5.40;99.90;;;;;;5093991;28;20400;-74
2022/03/26 03:10:30;;;;;;;125.85;56.05;;;5.20;99.90;;;;;;5092649;28;20122;-74
2022/03/26 03:12:56;;;;;;;123.47;55.78;;;5.50;99.90;;;;;;5093900;28;20051;-74
2022/03/26 03:15:22;;;;;;;124.85;55.45;;;5.30;99.90;;;;;;5093864;28;20096;-75
2022/03/26 03:17:49;;;;;;;132.25;57.35;;;5.50;99.90;;;;;;5093849;28;20400;-74
2022/03/26 03:20:15;;;;;;;120.15;56.40;;;5.80;99.90;;;;;;5093832;28;20048;-74
2022/03/26 03:22:43;;;;;;;129.80;58.35;;;5.50;99.90;;;;;;5092984;28;20412;-72
2022/03/26 03:25:09;;;;;;;126.85;56.67;;;5.80;99.90;;;;;;5093804;28;20161;-72
2022/03/26 03:27:35;;;;;;;124.78;57.08;;;5.30;99.90;;;;;;5092349;28;20483;-71
2022/03/26 03:30:02;;;;;;;137.10;62.17;;;5.20;99.90;;;;;;5093830;28;20048;-72
2022/03/26 03:32:28;;;;;;;134.10;57.95;;;5.20;99.90;;;;;;5093974;28;20427;-71
2022/03/26 03:34:53;;;;;;;132.57;57.05;;;5.60;99.90;;;;;;5092747;28;20047;-71
2022/03/26 03:37:20;;;;;;;134.20;57.10;;;5.40;99.90;;;;;;5060094;28;20040;-72
2022/03/26 03:39:46;;;;;;;126.68;59.20;;;5.40;99.90;;;;;;5092918;28;20055;-71
2022/03/26 03:42:12;;;;;;;142.07;58.40;;;5.20;99.90;;;;;;5093654;28;20392;-71
2022/03/26 03:44:37;;;;;;;126.85;57.80;;;5.50;99.90;;;;;;5092686;28;20086;-71
2022/03/26 03:47:04;;;;;;;125.90;57.00;;;5.50;99.90;;;;;;5092378;28;20048;-71
2022/03/26 03:49:33;;;;;;;127.38;58.20;;;5.20;99.90;;;;;;5093617;28;20446;-71
2022/03/26 03:51:59;;;;;;;128.90;55.83;;;5.00;99.90;;;;;;5093502;28;20040;-71
2022/03/26 03:54:25;;;;;;;124.15;56.50;;;5.60;99.90;;;;;;5093401;28;20151;-71
2022/03/26 03:56:51;;;;;;;123.38;55.75;;;5.10;99.90;;;;;;5058757;28;20092;-71
2022/03/26 03:59:18;;;;;;;118.85;56.05;;;5.60;99.90;;;;;;5094033;28;20055;-71
2022/03/26 04:01:44;;;;;;;124.60;57.50;;;5.00;99.90;;;;;;5093089;28;20040;-72
2022/03/26 04:04:09;;;;;;;125.75;55.13;;;5.00;99.90;;;;;;5092310;28;20093;-71
2022/03/26 04:06:35;;;;;;;124.28;54.10;;;5.00;99.90;;;;;;5093566;28;20040;-71
2022/03/26 04:09:01;;;;;;;126.47;57.05;;;5.50;99.90;;;;;;5096699;28;20043;-71
2022/03/26 04:11:27;;;;;;;119.18;55.55;;;5.00;99.90;;;;;;5096190;28;20044;-71
2022/03/26 04:13:53;;;;;;;113.05;54.10;;;5.30;99.90;;;;;;5079264;28;20091;-71
2022/03/26 04:16:22;;;;;;;126.80;58.25;;;5.00;99.90;;;;;;5097288;28;20121;-71
2022/03/26 04:18:48;;;;;;;116.82;53.83;;;4.90;99.90;;;;;;5096680;28;20074;-71
2022/03/26 04:21:15;;;;;;;120.43;54.63;;;5.20;99.90;;;;;;5097468;28;20041;-71
2022/03/26 04:23:41;;;;;;;117.93;53.63;;;5.50;99.90;;;;;;5095946;28;20085;-71
2022/03/26 04:26:08;;;;;;;131.27;58.15;;;5.50;99.90;;;;;;5096971;28;20044;-71
2022/03/26 04:28:34;;;;;;;125.88;55.13;;;5.00;99.90;;;;;;5079171;28;20044;-71
2022/03/26 04:31:00;;;;;;;109.95;51.50;;;5.20;99.90;;;;;;5097167;28;20040;-71
2022/03/26 04:33:26;;;;;;;126.20;56.15;;;4.90;99.90;;;;;;5095903;28;20547;-71
2022/03/26 04:35:52;;;;;;;122.05;56.22;;;4.90;99.90;;;;;;5096875;28;20044;-71
2022/03/26 04:38:18;;;;;;;116.53;53.53;;;5.90;99.90;;;;;;5096771;28;20123;-72
2022/03/26 04:40:44;;;;;;;126.63;56.70;;;5.30;99.90;;;;;;5097684;28;20075;-71
2022/03/26 04:43:10;;;;;;;119.03;55.95;;;5.10;99.90;;;;;;5079567;28;20090;-71
2022/03/26 04:45:36;;;;;;;131.70;57.63;;;4.90;99.90;;;;;;5095496;28;20093;-71
2022/03/26 04:48:01;;;;;;;122.45;55.17;;;6.00;99.90;;;;;;5095494;28;20127;-70
2022/03/26 04:50:27;;;;;;;115.15;53.88;;;5.50;99.90;;;;;;5096176;28;20047;-70
2022/03/26 04:52:53;;;;;;;125.32;54.47;;;4.90;99.90;;;;;;5078586;28;20499;-70
2022/03/26 04:55:19;;;;;;;127.05;56.40;;;5.00;99.90;;;;;;5096543;28;20059;-71
2022/03/26 04:57:51;;;;;;;121.20;56.85;;;4.90;99.90;;;;;;5095077;28;20064;-70
2022/03/26 05:00:19;;;;;;;125.95;56.15;;;5.10;99.90;;;;;;5095905;28;20044;-70
2022/03/26 05:02:45;;;;;;;120.78;55.28;;;4.90;99.90;;;;;;5095809;28;20440;-70
2022/03/26 05:05:13;;;;;;;128.18;54.92;;;5.00;99.90;;;;;;5096062;28;20044;-70
2022/03/26 05:07:45;;;;;;;117.15;51.95;;;5.10;99.90;;;;;;5095336;28;20079;-70
2022/03/26 05:10:19;;;;;;;120.50;55.10;;;4.80;99.90;;;;;;5096860;28;20379;-70
2022/03/26 05:12:45;;;;;;;;;;;4.70;99.90;;;;;;5095848;28;20097;-70
2022/03/26 05:15:12;;;;;;;123.07;55.22;;;4.70;99.90;;;;;;5096444;28;20419;-70
2022/03/26 05:17:37;;;;;;;116.22;53.53;;;4.70;99.90;;;;;;5095201;28;20036;-70
2022/03/26 05:20:05;;;;;;;112.72;51.20;;;4.70;99.90;;;;;;5094939;28;20047;-71
2022/03/26 05:22:31;;;;;;;117.88;54.65;;;4.60;99.90;;;;;;5095178;28;20055;-71
2022/03/26 05:24:57;;;;;;;122.28;55.13;;;4.60;99.90;;;;;;5096925;28;20075;-71
2022/03/26 05:27:23;;;;;;;122.97;56.25;;;4.60;99.90;;;;;;5095121;28;20494;-71
2022/03/26 05:29:49;;;;;;;114.30;51.42;;;4.60;99.90;;;;;;5078115;28;20054;-71
2022/03/26 05:32:15;;;;;;;115.40;52.80;;;5.00;99.90;;;;;;5095845;28;20071;-71
2022/03/26 05:34:42;;;;;;;112.43;52.97;;;4.60;99.90;;;;;;5095263;28;20051;-71
2022/03/26 05:37:07;;;;;;;108.18;49.78;;;4.60;99.90;;;;;;5095843;28;20083;-71
2022/03/26 05:39:33;;;;;;;121.32;52.15;;;4.80;99.90;;;;;;5094732;28;20090;-71
2022/03/26 05:42:00;;;;;;;123.63;54.15;;;5.30;99.90;;;;;;5095685;28;20040;-71
2022/03/26 05:44:26;;;;;;;127.68;55.60;;;5.00;99.90;;;;;;5095681;28;20400;-71
2022/03/26 05:46:51;;;;;;;126.55;55.80;;;4.90;99.90;;;;;;5096429;28;20432;-70
2022/03/26 05:49:18;;;;;;;114.53;53.10;;;4.70;99.90;;;;;;5094299;28;20040;-71
2022/03/26 05:51:44;;;;;;;118.10;52.13;;;4.90;99.90;;;;;;5095436;28;20130;-70
2022/03/26 05:54:10;;;;;;;124.55;50.97;;;4.70;99.90;;;;;;5095727;28;20422;-70
2022/03/26 05:56:36;;;;;;;119.85;53.63;;;4.90;99.90;;;;;;5095183;28;20060;-70
2022/03/26 05:59:03;;;;;;;116.18;50.78;;;5.10;99.90;;;;;;5095584;28;20070;-70
2022/03/26 06:01:31;;;;;;;117.22;52.78;;;4.80;99.90;;;;;;5094632;28;20077;-70
2022/03/26 06:03:56;;;;;;;119.18;52.58;;;4.70;99.90;;;;;;5094021;28;20173;-70
2022/03/26 06:06:22;;;;;;;115.97;51.08;;;5.20;99.90;;;;;;5094881;28;20109;-71
2022/03/26 06:08:48;;;;;;;117.78;52.05;;;5.40;99.90;;;;;;5093930;28;20055;-70
2022/03/26 06:11:13;;;;;;;118.85;52.22;;;5.10;99.90;;;;;;5093479;28;20047;-70
2022/03/26 06:13:39;;;;;;;111.75;51.97;;;4.80;99.90;;;;;;5094014;28;20040;-70
2022/03/26 06:16:05;;;;;;;118.35;53.00;;;4.90;99.90;;;;;;5094172;28;20066;-70
2022/03/26 06:18:31;;;;;;;111.90;51.10;;;4.80;99.90;;;;;;5095028;28;20123;-70
2022/03/26 06:20:57;;;;;;;112.10;51.45;;;5.40;99.90;;;;;;5094929;28;20040;-70
2022/03/26 06:23:22;;;;;;;117.35;53.65;;;5.20;99.90;;;;;;5094876;28;20087;-70
2022/03/26 06:25:48;;;;;;;105.85;48.88;;;5.30;99.90;;;;;;5094792;28;20089;-70
2022/03/26 06:28:19;;;;;;;112.65;49.55;;;5.40;99.90;;;;;;5094710;28;20048;-70
2022/03/26 06:30:46;;;;;;;122.32;54.25;;;5.50;99.90;;;;;;5093903;28;20116;-70
2022/03/26 06:33:15;;;;;;;117.38;53.85;;;5.80;99.90;;;;;;5093420;28;20055;-70
2022/03/26 06:35:41;;;;;;;125.72;55.22;;;5.40;99.90;;;;;;5093595;28;20051;-71
2022/03/26 06:38:07;;;;;;;120.93;54.28;;;5.40;99.90;;;;;;5094428;28;20044;-71
2022/03/26 06:40:33;;;;;;;126.53;55.70;;;5.50;99.90;;;;;;5059966;28;20043;-71
2022/03/26 06:42:58;;;;;;;124.15;55.22;;;5.60;99.90;;;;;;5093708;28;20039;-70
2022/03/26 06:45:24;;;;;;;125.95;54.83;;;5.90;99.90;;;;;;5094398;28;20091;-71
2022/03/26 06:47:50;;;;;;;117.82;51.38;;;5.80;99.90;;;;;;5093084;28;20394;-70
2022/03/26 06:50:16;;;;;;;121.38;53.00;;;6.20;99.90;;;;;;5077115;28;20048;-71
2022/03/26 06:52:41;;;;;;;116.10;52.97;;;6.40;99.90;;;;;;5076275;28;20047;-71
2022/03/26 06:55:09;;;;;;;111.22;51.58;;;6.90;99.90;;;;;;5094424;28;20044;-71
2022/03/26 06:57:36;;;;;;;107.97;50.05;;;6.30;99.90;;;;;;5093002;28;20107;-71
2022/03/26 07:00:02;;;;;;;112.28;50.97;;;6.30;99.90;;;;;;5094172;28;20092;-71
2022/03/26 07:02:28;;;;;;;108.43;49.70;;;6.40;99.90;;;;;;5093165;28;20048;-71
2022/03/26 07:04:54;;;;;;;104.57;48.70;;;6.40;99.90;;;;;;5093757;28;20048;-71
2022/03/26 07:07:19;;;;;;;96.97;46.30;;;6.70;99.90;;;;;;5093703;28;20055;-71
2022/03/26 07:09:45;;;;;;;99.38;47.40;;;6.60;99.90;;;;;;5093576;28;20101;-71
2022/03/26 07:12:12;;;;;;;102.00;46.22;;;6.80;99.90;;;;;;5092588;28;20112;-71
2022/03/26 07:14:38;;;;;;;97.05;45.80;;;7.00;99.90;;;;;;5059335;28;20488;-73
2022/03/26 07:17:04;;;;;;;98.20;47.03;;;7.20;99.90;;;;;;5093618;28;20047;-71
2022/03/26 07:19:30;;;;;;;98.82;46.67;;;7.10;99.90;;;;;;5092622;28;20081;-71
2022/03/26 07:21:56;;;;;;;101.43;46.72;;;7.20;99.90;;;;;;5092520;28;20040;-71
2022/03/26 07:24:21;;;;;;;95.30;46.17;;;7.20;99.90;;;;;;5093408;28;20052;-71
2022/03/26 07:26:47;;;;;;;98.63;45.65;;;7.90;99.90;;;;;;5092940;28;20052;-71
2022/03/26 07:29:13;;;;;;;98.05;46.63;;;7.30;99.90;;;;;;5092553;28;20047;-71
2022/03/26 07:31:38;;;;;;;90.30;44.72;;;7.50;99.90;;;;;;5092365;28;20044;-70
2022/03/26 07:34:04;;;;;;;94.53;44.17;;;7.50;99.90;;;;;;5094147;28;20376;-70
2022/03/26 07:36:32;;;;;;;95.80;45.80;;;7.90;99.90;;;;;;5093554;28;20137;-71
2022/03/26 07:38:58;;;;;;;95.68;44.55;;;7.70;99.90;;;;;;5093530;28;20468;-71
2022/03/26 07:41:24;;;;;;;88.95;42.63;;;7.70;99.90;;;;;;5093675;28;20055;-71
2022/03/26 07:43:50;;;;;;;91.20;43.00;;;7.80;99.90;;;;;;5096397;28;20043;-71
2022/03/26 07:46:18;;;;;;;84.45;40.90;;;7.90;99.90;;;;;;5096834;28;20051;-71
2022/03/26 07:48:45;;;;;;;83.82;40.22;;;8.40;99.90;;;;;;5097718;28;20048;-71
2022/03/26 07:51:11;;;;;;;82.95;40.90;;;8.30;99.90;;;;;;5097930;28;20048;-72
2022/03/26 07:53:36;;;;;;;81.68;40.28;;;8.50;99.90;;;;;;5097633;28;20115;-71
2022/03/26 07:56:02;;;;;;;84.18;40.67;;;8.30;99.90;;;;;;5097240;28;20506;-72
2022/03/26 07:58:28;;;;;;;83.32;41.35;;;8.30;99.90;;;;;;5097260;28;20060;-72
2022/03/26 08:00:54;;;;;;;73.75;38.55;;;8.50;99.90;;;;;;5079599;28;20048;-71
2022/03/26 08:03:20;;;;;;;71.15;37.33;;;7.80;99.90;;;;;;5079530;28;20048;-71
2022/03/26 08:05:45;;;;;;;73.13;37.88;;;8.50;99.90;;;;;;5096375;28;20041;-71
2022/03/26 08:08:11;;;;;;;73.57;37.88;;;8.70;99.90;;;;;;5097761;28;20526;-70
2022/03/26 08:10:37;;;;;;;74.15;36.05;;;8.90;99.90;;;;;;5097271;28;20043;-70
2022/03/26 08:13:03;;;;;;;68.28;35.40;;;9.00;99.90;;;;;;5097226;28;20051;-69
2022/03/26 08:15:29;;;;;;;67.80;36.05;;;8.80;99.90;;;;;;5098211;28;20040;-71
2022/03/26 08:17:55;;;;;;;64.25;34.58;;;8.80;99.90;;;;;;5079515;28;20044;-71
2022/03/26 08:20:21;;;;;;;64.60;33.03;;;9.00;99.90;;;;;;5096918;28;20508;-70
2022/03/26 08:22:46;;;;;;;63.50;32.58;;;9.00;99.90;;;;;;5097105;28;20051;-71
2022/03/26 08:26:19;;;;;;;68.63;33.55;;;9.20;99.90;;;;;;5097902;28;20044;-72
2022/03/26 08:28:03;;;;;;;59.30;32.97;;;9.20;99.90;;;;;;5097013;28;20052;-71
2022/03/26 08:30:29;;;;;;;57.28;30.98;;;9.30;99.90;;;;;;5096275;28;20040;-69
2022/03/26 08:32:55;;;;;;;57.10;28.95;;;10.10;99.90;;;;;;5095747;28;20104;-70
2022/03/26 08:35:21;;;;;;;54.25;30.67;;;9.40;99.90;;;;;;5095797;28;20048;-71
2022/03/26 08:37:46;;;;;;;54.45;30.85;;;9.50;99.90;;;;;;5096104;28;20051;-70
2022/03/26 08:40:12;;;;;;;52.03;30.92;;;9.60;99.90;;;;;;5095693;28;20070;-70
2022/03/26 08:42:38;;;;;;;53.28;30.05;;;9.70;99.90;;;;;;5096839;28;20047;-70
2022/03/26 08:45:04;;;;;;;56.67;31.15;;;9.80;99.90;;;;;;5097572;28;20144;-70
2022/03/26 08:47:30;;;;;;;55.63;30.60;;;9.90;99.90;;;;;;5096730;28;20044;-70
2022/03/26 08:49:55;;;;;;;51.53;28.50;;;10.20;99.90;;;;;;5095767;28;20139;-70
2022/03/26 08:52:21;;;;;;;48.17;28.08;;;10.10;99.90;;;;;;5096738;28;20039;-70
2022/03/26 08:54:48;;;;;;;52.65;28.98;;;10.10;99.90;;;;;;5096952;28;20051;-70
2022/03/26 08:57:14;;;;;;;46.15;26.60;;;10.40;99.90;;;;;;5097026;28;20102;-70
2022/03/26 08:59:40;;;;;;;48.55;28.23;;;10.50;99.90;;;;;;5095479;28;20048;-70
2022/03/26 09:02:06;;;;;;;44.80;26.65;;;10.30;99.90;;;;;;5095527;28;20047;-70
2022/03/26 09:04:32;;;;;;;42.75;26.00;;;10.40;99.90;;;;;;5096431;28;20051;-70
2022/03/26 09:06:57;;;;;;;42.90;25.15;;;10.50;99.90;;;;;;5096128;28;20048;-72
2022/03/26 09:09:23;;;;;;;40.85;24.60;;;10.60;99.90;;;;;;5096556;28;20051;-71
2022/03/26 09:11:49;;;;;;;44.25;23.85;;;10.70;99.90;;;;;;5095927;28;20380;-72
2022/03/26 09:14:15;;;;;;;47.35;27.13;;;10.80;99.90;;;;;;5096226;28;20040;-71
2022/03/26 09:16:41;;;;;;;44.15;26.67;;;11.00;99.90;;;;;;5095058;28;20051;-71
2022/03/26 09:19:06;;;;;;;40.72;23.98;;;11.00;99.90;;;;;;5096165;28;20517;-71
2022/03/26 09:21:32;;;;;;;37.03;23.33;;;11.10;99.90;;;;;;5095096;28;20054;-72
2022/03/26 09:23:58;;;;;;;39.58;24.30;;;11.20;99.90;;;;;;5095377;28;20050;-71
2022/03/26 09:26:24;;;;;;;38.67;23.63;;;11.30;99.90;;;;;;5095408;28;20040;-71
2022/03/26 09:28:50;;;;;;;35.35;20.40;;;11.40;99.90;;;;;;5095281;28;20043;-71
2022/03/26 09:31:15;;;;;;;31.02;19.00;;;11.50;99.90;;;;;;5094700;28;20125;-71
2022/03/26 09:33:42;;;;;;;33.20;19.15;;;11.60;99.90;;;;;;5095542;28;20131;-70
2022/03/26 09:36:09;;;;;;;30.90;18.80;;;11.60;99.90;;;;;;5061465;28;20045;-71
2022/03/26 09:38:35;;;;;;;28.58;17.38;;;11.70;99.90;;;;;;5095646;28;20040;-70
2022/03/26 09:41:01;;;;;;;30.13;17.83;;;11.90;99.90;;;;;;5077596;28;20048;-70
2022/03/26 09:43:28;;;;;;;28.48;18.02;;;12.00;99.90;;;;;;5094577;28;20040;-70
2022/03/26 09:45:54;;;;;;;31.75;17.98;;;12.00;99.90;;;;;;5096187;28;20126;-71
2022/03/26 09:48:20;;;;;;;25.58;16.20;;;12.20;99.90;;;;;;5077520;28;20134;-71
2022/03/26 09:50:47;;;;;;;23.83;14.90;;;12.20;99.90;;;;;;5078575;28;20044;-67
2022/03/26 09:53:13;;;;;;;29.15;17.27;;;12.30;99.90;;;;;;5094834;28;20048;-71
2022/03/26 09:55:40;;;;;;;27.27;16.33;;;12.40;99.90;;;;;;5094179;28;20082;-71
2022/03/26 09:58:06;;;;;;;21.42;15.02;;;12.50;99.90;;;;;;5095543;28;20055;-70
2022/03/26 10:00:31;;;;;;;24.75;14.45;;;12.50;99.90;;;;;;5094131;28;20052;-70
2022/03/26 10:02:57;;;;;;;21.33;11.63;;;12.60;99.90;;;;;;5077912;28;20051;-70
2022/03/26 10:05:32;;;;;;;20.45;12.15;;;12.60;99.90;;;;;;5094112;28;20044;-71
2022/03/26 10:07:58;;;;;;;17.30;11.38;;;12.70;99.90;;;;;;5095777;28;20059;-70
2022/03/26 10:10:25;;;;;;;18.65;11.60;;;12.80;99.90;;;;;;5093930;28;20044;-70
2022/03/26 10:12:52;;;;;;;19.55;11.35;;;12.80;99.90;;;;;;5095688;28;20051;-70
2022/03/26 10:15:18;;;;;;;19.10;11.77;;;13.10;99.90;;;;;;5094063;28;20054;-68
2022/03/26 10:17:43;;;;;;;16.90;9.93;;;13.00;99.90;;;;;;5095880;28;20453;-70
2022/03/26 10:20:13;;;;;;;16.00;10.27;;;13.10;99.90;;;;;;5094980;28;20395;-71
2022/03/26 10:22:50;;;;;;;15.82;9.98;;;13.20;99.90;;;;;;5095012;28;20040;-70
2022/03/26 10:25:15;;;;;;;16.33;10.77;;;13.20;99.90;;;;;;5095504;28;20047;-71
2022/03/26 10:27:51;;;;;;;15.07;9.77;;;13.30;99.90;;;;;;5094246;28;20053;-71
2022/03/26 10:33:19;;;;;;;15.50;9.48;;;13.30;99.90;;;;;;5094774;28;20185;-70
2022/03/26 10:35:53;;;;;;;13.95;8.65;;;13.30;99.90;;;;;;5093964;28;20048;-71
2022/03/26 10:38:19;;;;;;;11.38;7.68;;;13.30;99.90;;;;;;5094555;28;20057;-70
2022/03/26 10:40:44;;;;;;;13.88;8.68;;;13.40;99.90;;;;;;5094948;28;20051;-70
2022/03/26 10:43:13;;;;;;;12.05;7.88;;;13.40;99.90;;;;;;5094584;28;20434;-72
2022/03/26 10:45:50;;;;;;;13.18;8.35;;;13.40;99.90;;;;;;5094356;28;20047;-71
2022/03/26 10:48:24;;;;;;;11.65;7.20;;;13.50;99.90;;;;;;5094471;28;20044;-72
2022/03/26 10:50:56;;;;;;;11.60;7.00;;;13.50;99.90;;;;;;5094424;28;20039;-70
2022/03/26 10:53:32;;;;;;;11.32;7.15;;;13.60;99.90;;;;;;5077349;28;20109;-71
2022/03/26 10:55:58;;;;;;;11.30;7.10;;;13.60;99.90;;;;;;5094416;28;20070;-70
2022/03/26 10:58:24;;;;;;;11.52;7.70;;;13.70;99.90;;;;;;5092902;28;20059;-69
2022/03/26 11:00:50;;;;;;;11.95;7.60;;;13.70;99.90;;;;;;5094329;28;20052;-71
2022/03/26 11:03:17;;;;;;;11.68;7.95;;;13.70;99.90;;;;;;5094078;28;20044;-69
2022/03/26 11:05:44;;;;;;;10.35;7.75;;;13.70;99.90;;;;;;5076468;28;20044;-72
2022/03/26 11:08:12;;;;;;;10.30;7.05;;;13.80;99.90;;;;;;5093497;28;20043;-71
2022/03/26 11:10:38;;;;;;;9.85;6.13;;;13.70;99.90;;;;;;5093064;28;20040;-71
2022/03/26 11:13:08;;;;;;;6.18;4.63;;;13.70;99.90;;;;;;5092966;28;20044;-71
2022/03/26 11:15:41;;;;;;;6.63;4.15;;;13.80;99.90;;;;;;5094446;28;20051;-71
2022/03/26 11:18:45;;;;;;;5.93;4.10;;;13.90;99.90;;;;;;5094636;28;20036;-70
2022/03/26 11:21:11;;;;;;;;;;;13.90;99.90;;;;;;5094415;28;20044;-71
2022/03/26 11:24:01;;;;;;;6.05;3.10;;;14.00;99.90;;;;;;5094041;28;19943;-71
2022/03/26 11:26:48;;;;;;;6.25;3.28;;;14.20;99.90;;;;;;5093275;28;20052;-70
2022/03/26 11:29:16;;;;;;;5.40;3.05;;;14.30;99.90;;;;;;5093899;28;20073;-70
2022/03/26 11:32:03;;;;;;;5.30;3.53;;;14.40;99.90;;;;;;5093769;28;20083;-70
2022/03/26 11:34:37;;;;;;;4.65;2.70;;;14.40;99.90;;;;;;5094390;28;20083;-70
2022/03/26 11:37:21;;;;;;;3.58;2.03;;;14.40;99.90;;;;;;5093824;28;20051;-71
2022/03/26 11:39:56;;;;;;;3.63;1.73;;;14.50;99.90;;;;;;5092551;28;20044;-70
2022/03/26 11:42:31;;;;;;;3.60;1.88;;;14.40;99.90;;;;;;5093811;28;20052;-70
2022/03/26 11:51:16;;;;;;;2.85;2.00;;;14.50;99.90;;;;;;5094507;28;20102;-71
2022/03/26 11:53:44;;;;;;;4.10;2.95;;;14.50;99.80;;;;;;5093886;28;20468;-69
2022/03/26 11:56:33;;;;;;;5.20;3.08;;;14.50;99.90;;;;;;5093007;28;20052;-70
2022/03/26 11:59:16;;;;;;;5.88;3.72;;;14.40;99.90;;;;;;5094244;28;20060;-70
2022/03/26 12:01:44;;;;;;;3.92;3.05;;;14.40;99.90;;;;;;5093196;28;20131;-70
2022/03/26 12:04:15;;;;;;;4.85;3.67;;;14.40;99.90;;;;;;5075693;28;20112;-70
2022/03/26 12:07:00;;;;;;;5.28;3.50;;;14.40;99.90;;;;;;5093513;28;20039;-70
2022/03/26 12:09:33;;;;;;;5.72;3.08;;;14.40;99.90;;;;;;5093394;28;20048;-70
2022/03/26 12:12:05;;;;;;;4.45;3.05;;;14.40;99.90;;;;;;5093305;28;20480;-70
2022/03/26 12:14:34;;;;;;;5.13;3.33;;;14.30;99.90;;;;;;5093396;28;20055;-71
2022/03/26 12:17:02;;;;;;;5.90;2.88;;;14.30;99.90;;;;;;5093377;28;20058;-68
2022/03/26 12:19:41;;;;;;;5.88;3.40;;;14.30;99.90;;;;;;5093374;28;20090;-69
2022/03/26 12:22:19;;;;;;;5.80;3.55;;;14.20;99.90;;;;;;5093402;28;20055;-70
2022/03/26 12:24:47;;;;;;;4.88;3.15;;;14.10;99.90;;;;;;5093361;28;20493;-70
2022/03/26 12:27:13;;;;;;;6.32;3.53;;;14.10;99.90;;;;;;5093290;28;20097;-70
2022/03/26 12:29:40;;;;;;;5.78;3.55;;;14.00;99.90;;;;;;5095481;28;20514;-70
2022/03/26 12:32:06;;;;;;;6.18;3.50;;;14.10;99.90;;;;;;5097870;28;20036;-71
2022/03/26 12:34:32;;;;;;;7.93;3.58;;;14.10;99.90;;;;;;5097584;28;20051;-71
2022/03/26 12:37:02;;;;;;;6.75;3.97;;;14.10;99.90;;;;;;5078978;28;20046;-68
2022/03/26 12:39:29;;;;;;;6.50;4.68;;;14.10;99.90;;;;;;5096839;28;20070;-70
2022/03/26 12:41:56;;;;;;;9.10;4.78;;;14.10;99.90;;;;;;5097712;28;20044;-67